createdAt,value
2017-10-12T00:01:00.887Z,3.33
2017-10-12T00:03:29.112Z,3.00
2017-10-12T00:05:56.543Z,3.57
2017-10-12T00:08:23.984Z,3.50
2017-10-12T00:10:51.431Z,3.63
2017-10-12T00:13:19.631Z,3.63
2017-10-12T00:15:47.062Z,3.67
2017-10-12T00:18:15.263Z,3.80
2017-10-12T00:20:42.705Z,3.30
2017-10-12T00:23:10.144Z,3.60
2017-10-12T00:25:38.343Z,3.40
2017-10-12T00:28:05.783Z,3.70
2017-10-12T00:30:33.215Z,3.80
2017-10-12T00:33:01.431Z,3.43
2017-10-12T00:35:28.863Z,3.80
2017-10-12T00:37:57.071Z,2.77
2017-10-12T00:40:24.514Z,3.30
2017-10-12T00:42:51.956Z,2.83
2017-10-12T00:45:19.400Z,2.73
2017-10-12T00:47:47.599Z,3.03
2017-10-12T00:50:15.045Z,3.00
2017-10-12T00:52:42.474Z,3.10
2017-10-12T00:55:10.685Z,3.23
2017-10-12T00:57:38.163Z,3.17
2017-10-12T01:00:05.599Z,3.10
2017-10-12T01:02:33.038Z,3.37
2017-10-12T01:05:00.479Z,3.00
2017-10-12T01:07:27.915Z,3.60
2017-10-12T01:09:55.355Z,3.80
2017-10-12T01:12:22.790Z,3.57
2017-10-12T01:14:50.233Z,3.50
2017-10-12T01:17:17.672Z,3.10
2017-10-12T01:19:45.119Z,3.77
2017-10-12T01:22:13.318Z,3.37
2017-10-12T01:24:40.762Z,3.50
2017-10-12T01:27:08.207Z,3.60
2017-10-12T01:29:36.416Z,3.50
2017-10-12T01:32:03.857Z,3.37
2017-10-12T01:34:31.298Z,3.30
2017-10-12T01:36:58.731Z,3.40
2017-10-12T01:39:26.948Z,3.23
2017-10-12T01:41:54.383Z,3.67
2017-10-12T01:44:21.815Z,3.80
2017-10-12T01:46:50.030Z,3.27
2017-10-12T01:49:17.488Z,3.53
2017-10-12T01:51:44.911Z,3.03
2017-10-12T01:54:13.116Z,3.30
2017-10-12T01:56:40.546Z,3.47
2017-10-12T01:59:08.755Z,3.00
2017-10-12T02:01:36.199Z,3.13
2017-10-12T02:04:03.655Z,2.70
2017-10-12T02:06:31.087Z,4.30
2017-10-12T02:08:59.320Z,2.90
2017-10-12T02:11:26.755Z,3.00
2017-10-12T02:13:54.195Z,2.73
2017-10-12T02:16:21.634Z,2.83
2017-10-12T02:18:49.073Z,3.20
2017-10-12T02:21:16.515Z,3.23
2017-10-12T02:23:43.950Z,3.10
2017-10-12T02:26:11.394Z,3.00
2017-10-12T02:28:38.834Z,2.90
2017-10-12T02:31:06.498Z,3.63
2017-10-12T02:33:33.924Z,3.30
2017-10-12T02:36:02.133Z,3.20
2017-10-12T02:38:29.581Z,3.40
2017-10-12T02:40:57.018Z,3.37
2017-10-12T02:43:24.463Z,3.60
2017-10-12T02:45:52.663Z,3.47
2017-10-12T02:48:20.103Z,3.43
2017-10-12T02:50:47.548Z,2.93
2017-10-12T02:53:15.748Z,3.30
2017-10-12T02:55:43.195Z,2.90
2017-10-12T02:58:10.635Z,3.00
2017-10-12T03:00:38.842Z,2.63
2017-10-12T03:03:06.289Z,3.50
2017-10-12T03:05:33.746Z,3.20
2017-10-12T03:08:01.180Z,3.13
2017-10-12T03:10:28.879Z,2.90
2017-10-12T03:12:56.319Z,2.80
2017-10-12T03:15:23.755Z,3.20
2017-10-12T03:17:51.261Z,3.00
2017-10-12T03:20:18.827Z,3.00
2017-10-12T03:22:46.277Z,3.20
2017-10-12T03:25:13.737Z,3.07
2017-10-12T03:27:41.160Z,3.20
2017-10-12T03:30:08.598Z,2.93
2017-10-12T03:32:36.034Z,3.10
2017-10-12T03:35:04.243Z,3.07
2017-10-12T03:37:31.686Z,2.80
2017-10-12T03:39:59.115Z,3.20
2017-10-12T03:42:27.331Z,2.53
2017-10-12T03:44:54.768Z,2.77
2017-10-12T03:47:22.199Z,2.97
2017-10-12T03:49:49.631Z,3.27
2017-10-12T03:52:17.078Z,2.50
2017-10-12T03:54:44.531Z,3.00
2017-10-12T03:57:11.975Z,2.40
2017-10-12T03:59:39.420Z,3.00
2017-10-12T04:02:06.849Z,2.63
2017-10-12T04:04:35.063Z,2.90
2017-10-12T04:07:02.539Z,2.40
2017-10-12T04:09:29.989Z,2.83
2017-10-12T04:11:57.434Z,2.63
2017-10-12T04:14:24.871Z,2.67
2017-10-12T04:16:52.307Z,3.10
2017-10-12T04:19:19.763Z,2.77
2017-10-12T04:21:47.200Z,2.70
2017-10-12T04:24:15.415Z,2.87
2017-10-12T04:26:42.846Z,2.87
2017-10-12T04:29:11.060Z,3.20
2017-10-12T04:31:38.500Z,2.00
2017-10-12T04:34:05.956Z,2.70
2017-10-12T04:36:33.386Z,2.83
2017-10-12T04:39:01.607Z,3.00
2017-10-12T04:41:29.040Z,3.10
2017-10-12T04:43:56.478Z,2.90
2017-10-12T04:46:23.914Z,3.10
2017-10-12T04:48:52.125Z,3.17
2017-10-12T04:51:19.563Z,3.67
2017-10-12T04:53:47.027Z,3.87
2017-10-12T04:56:14.463Z,3.57
2017-10-12T04:58:42.668Z,3.47
2017-10-12T05:01:10.123Z,4.57
2017-10-12T05:03:37.554Z,3.43
2017-10-12T05:06:04.995Z,3.17
2017-10-12T05:08:33.209Z,3.63
2017-10-12T05:11:00.646Z,3.43
2017-10-12T05:13:28.083Z,3.30
2017-10-12T05:15:56.307Z,3.80
2017-10-12T05:18:23.751Z,3.50
2017-10-12T05:20:51.190Z,3.37
2017-10-12T05:23:18.631Z,2.70
2017-10-12T05:25:46.834Z,2.90
2017-10-12T05:28:14.274Z,3.30
2017-10-12T05:30:41.731Z,2.90
2017-10-12T05:33:09.178Z,2.70
2017-10-12T05:35:37.415Z,3.13
2017-10-12T05:38:04.851Z,4.23
2017-10-12T05:40:32.289Z,4.50
2017-10-12T05:42:59.746Z,7.40
2017-10-12T05:45:27.194Z,5.57
2017-10-12T05:47:54.630Z,4.10
2017-10-12T05:50:22.842Z,4.00
2017-10-12T05:52:50.287Z,3.30
2017-10-12T05:55:17.731Z,3.47
2017-10-12T05:57:45.179Z,3.60
2017-10-12T06:00:12.621Z,3.10
2017-10-12T06:02:40.831Z,3.20
2017-10-12T06:05:08.272Z,3.47
2017-10-12T06:07:35.719Z,3.40
2017-10-12T06:10:03.164Z,2.90
2017-10-12T06:12:31.391Z,3.30
2017-10-12T06:14:58.826Z,3.30
2017-10-12T06:17:26.285Z,3.57
2017-10-12T06:19:53.738Z,3.07
2017-10-12T06:22:21.319Z,3.60
2017-10-12T06:24:48.763Z,3.43
2017-10-12T06:27:16.975Z,3.20
2017-10-12T06:29:44.420Z,3.53
2017-10-12T06:32:11.910Z,3.90
2017-10-12T06:34:40.120Z,3.27
2017-10-12T06:37:07.592Z,3.27
2017-10-12T06:39:35.041Z,3.83
2017-10-12T06:42:02.487Z,3.60
2017-10-12T06:44:29.938Z,3.73
2017-10-12T06:46:57.379Z,3.27
2017-10-12T06:49:24.823Z,3.80
2017-10-12T06:51:53.027Z,3.43
2017-10-12T06:54:20.474Z,3.47
2017-10-12T06:56:47.910Z,4.20
2017-10-12T06:59:15.359Z,3.30
2017-10-12T07:01:43.568Z,3.57
2017-10-12T07:04:11.014Z,3.97
2017-10-12T07:06:38.448Z,3.73
2017-10-12T07:09:06.671Z,3.70
2017-10-12T07:11:34.148Z,3.63
2017-10-12T07:14:01.591Z,4.23
2017-10-12T07:16:29.036Z,3.40
2017-10-12T07:18:56.488Z,3.73
2017-10-12T07:21:23.932Z,4.03
2017-10-12T07:23:51.386Z,4.00
2017-10-12T07:26:18.831Z,4.17
2017-10-12T07:28:46.300Z,4.30
2017-10-12T07:31:13.738Z,3.73
2017-10-12T07:33:41.175Z,3.77
2017-10-12T07:36:09.383Z,3.50
2017-10-12T07:38:36.818Z,3.67
2017-10-12T07:41:04.266Z,3.90
2017-10-12T07:43:32.471Z,3.50
2017-10-12T07:45:59.924Z,3.90
2017-10-12T07:48:27.364Z,3.80
2017-10-12T07:50:54.804Z,3.80
2017-10-12T07:53:23.010Z,3.20
2017-10-12T07:55:50.467Z,4.53
2017-10-12T07:58:17.903Z,4.07
2017-10-12T08:00:45.350Z,3.93
2017-10-12T08:03:13.558Z,4.70
2017-10-12T08:05:41.011Z,3.87
2017-10-12T08:08:08.451Z,3.80
2017-10-12T08:10:35.899Z,3.77
2017-10-12T08:13:03.336Z,4.50
2017-10-12T08:15:31.559Z,3.73
2017-10-12T08:17:58.991Z,4.40
2017-10-12T08:20:26.443Z,4.07
2017-10-12T08:22:53.883Z,4.10
2017-10-12T08:25:22.095Z,4.60
2017-10-12T08:27:49.535Z,4.47
2017-10-12T08:30:16.980Z,5.23
2017-10-12T08:32:44.424Z,4.90
2017-10-12T08:35:12.639Z,4.23
2017-10-12T08:37:40.089Z,3.80
2017-10-12T08:40:07.526Z,3.93
2017-10-12T08:42:34.979Z,3.70
2017-10-12T08:45:03.191Z,4.40
2017-10-12T08:47:30.642Z,4.00
2017-10-12T08:49:58.088Z,4.00
2017-10-12T08:52:25.544Z,4.27
2017-10-12T08:54:52.982Z,3.90
2017-10-12T08:57:20.425Z,4.87
2017-10-12T08:59:48.630Z,4.57
2017-10-12T09:02:16.087Z,3.90
2017-10-12T09:04:43.526Z,3.93
2017-10-12T09:07:10.971Z,3.70
2017-10-12T09:09:39.179Z,3.93
2017-10-12T09:12:06.693Z,3.33
2017-10-12T09:14:34.904Z,3.10
2017-10-12T09:17:02.360Z,3.90
2017-10-12T09:19:29.815Z,3.10
2017-10-12T09:21:57.269Z,3.20
2017-10-12T09:24:25.467Z,3.50
2017-10-12T09:26:52.936Z,3.50
2017-10-12T09:29:20.374Z,3.30
2017-10-12T09:31:47.828Z,3.43
2017-10-12T09:34:15.271Z,4.33
2017-10-12T09:36:42.723Z,4.27
2017-10-12T09:39:10.185Z,3.90
2017-10-12T09:41:37.638Z,4.37
2017-10-12T09:44:05.090Z,3.53
2017-10-12T09:46:32.531Z,3.43
2017-10-12T09:48:59.974Z,3.93
2017-10-12T09:51:28.179Z,3.53
2017-10-12T09:53:55.640Z,3.50
2017-10-12T09:56:23.067Z,3.33
2017-10-12T09:58:50.508Z,3.30
2017-10-12T10:01:17.938Z,3.80
2017-10-12T10:03:45.424Z,3.80
2017-10-12T10:06:12.862Z,3.70
2017-10-12T10:08:40.307Z,4.43
2017-10-12T10:11:07.753Z,4.03
2017-10-12T10:13:35.203Z,4.23
2017-10-12T10:16:02.653Z,4.03
2017-10-12T10:18:30.098Z,4.20
2017-10-12T10:20:58.303Z,4.27
2017-10-12T10:23:25.746Z,3.93
2017-10-12T10:25:53.190Z,4.60
2017-10-12T10:28:20.639Z,3.60
2017-10-12T10:30:48.090Z,3.23
2017-10-12T10:33:15.531Z,4.17
2017-10-12T10:35:42.984Z,3.70
2017-10-12T10:38:11.195Z,4.33
2017-10-12T10:40:38.639Z,4.10
2017-10-12T10:43:06.228Z,4.23
2017-10-12T10:45:33.671Z,3.80
2017-10-12T10:48:01.111Z,4.40
2017-10-12T10:50:28.947Z,3.77
2017-10-12T10:52:57.150Z,3.80
2017-10-12T10:55:24.599Z,4.17
2017-10-12T10:57:52.055Z,4.33
2017-10-12T11:00:19.503Z,4.80
2017-10-12T11:02:46.947Z,4.47
2017-10-12T11:05:14.383Z,4.13
2017-10-12T11:07:42.619Z,4.20
2017-10-12T11:10:10.067Z,4.27
2017-10-12T11:12:37.512Z,4.10
2017-10-12T11:15:04.962Z,3.80
2017-10-12T11:17:32.403Z,3.60
2017-10-12T11:19:59.843Z,3.90
2017-10-12T11:22:28.091Z,4.30
2017-10-12T11:24:55.539Z,4.10
2017-10-12T11:27:22.988Z,3.67
2017-10-12T11:29:50.431Z,4.67
2017-10-12T11:32:17.875Z,4.13
2017-10-12T11:34:45.547Z,3.93
2017-10-12T11:37:13.003Z,4.20
2017-10-12T11:39:40.930Z,4.07
2017-10-12T11:42:08.416Z,4.90
2017-10-12T11:44:35.871Z,3.80
2017-10-12T11:47:03.306Z,3.53
2017-10-12T11:49:30.751Z,3.37
2017-10-12T11:51:58.969Z,3.73
2017-10-12T11:54:26.424Z,3.33
2017-10-12T11:56:53.866Z,3.07
2017-10-12T11:59:21.304Z,3.17
2017-10-12T12:01:48.747Z,3.50
2017-10-12T12:04:16.952Z,3.40
2017-10-12T12:06:44.409Z,3.00
2017-10-12T12:09:11.847Z,3.27
2017-10-12T12:11:39.304Z,3.70
2017-10-12T12:14:06.742Z,3.23
2017-10-12T12:16:34.958Z,2.90
2017-10-12T12:19:02.407Z,2.77
2017-10-12T12:21:29.864Z,2.60
2017-10-12T12:23:57.307Z,3.00
2017-10-12T12:26:24.763Z,3.13
2017-10-12T12:28:52.197Z,3.40
2017-10-12T12:31:20.420Z,2.77
2017-10-12T12:33:47.863Z,3.00
2017-10-12T12:36:15.311Z,3.40
2017-10-12T12:38:42.766Z,3.17
2017-10-12T12:41:10.232Z,2.70
2017-10-12T12:43:37.666Z,3.17
2017-10-12T12:46:05.959Z,3.03
2017-10-12T12:48:33.416Z,3.40
2017-10-12T12:51:00.871Z,3.00
2017-10-12T12:53:28.330Z,3.23
2017-10-12T12:55:55.790Z,3.33
2017-10-12T12:58:23.230Z,3.10
2017-10-12T13:00:50.676Z,3.40
2017-10-12T13:03:18.111Z,3.53
2017-10-12T13:05:46.327Z,2.83
2017-10-12T13:08:14.539Z,3.53
2017-10-12T13:10:41.983Z,3.40
2017-10-12T13:13:09.422Z,3.43
2017-10-12T13:15:36.870Z,3.57
2017-10-12T13:18:05.078Z,3.30
2017-10-12T13:20:32.527Z,2.80
2017-10-12T13:22:59.967Z,2.53
2017-10-12T13:25:27.413Z,2.20
2017-10-12T13:27:54.871Z,2.80
2017-10-12T13:30:22.307Z,2.20
2017-10-12T13:32:49.751Z,1.93
2017-10-12T13:35:17.963Z,2.00
2017-10-12T13:37:45.409Z,2.10
2017-10-12T13:40:12.847Z,2.33
2017-10-12T13:42:40.294Z,2.80
2017-10-12T13:45:07.734Z,2.03
2017-10-12T13:47:36.053Z,2.40
2017-10-12T13:50:03.491Z,2.67
2017-10-12T13:52:30.934Z,2.17
2017-10-12T13:54:59.151Z,2.40
2017-10-12T13:57:26.602Z,2.23
2017-10-12T13:59:54.047Z,1.80
2017-10-12T14:02:21.515Z,2.40
2017-10-12T14:04:48.961Z,2.80
2017-10-12T14:07:16.419Z,2.20
2017-10-12T14:09:43.872Z,1.93
2017-10-12T14:12:11.311Z,1.63
2017-10-12T14:14:38.755Z,1.80
2017-10-12T14:17:06.959Z,1.90
2017-10-12T14:19:34.416Z,2.27
2017-10-12T14:22:01.860Z,2.17
2017-10-12T14:24:29.301Z,2.10
2017-10-12T14:26:57.519Z,2.20
2017-10-12T14:29:24.966Z,2.40
2017-10-12T14:31:52.410Z,1.90
2017-10-12T14:34:19.863Z,2.40
2017-10-12T14:36:47.307Z,1.63
2017-10-12T14:39:14.786Z,2.03
2017-10-12T14:41:42.235Z,2.17
2017-10-12T14:44:09.692Z,2.50
2017-10-12T14:46:37.127Z,2.57
2017-10-12T14:49:04.571Z,2.67
2017-10-12T14:51:32.780Z,2.40
2017-10-12T14:54:00.234Z,2.30
2017-10-12T14:56:27.679Z,2.30
2017-10-12T14:58:55.128Z,2.10
2017-10-12T15:01:22.570Z,2.03
2017-10-12T15:03:50.795Z,2.07
2017-10-12T15:06:18.236Z,1.73
2017-10-12T15:08:45.684Z,1.73
2017-10-12T15:11:13.110Z,1.70
2017-10-12T15:13:41.330Z,1.80
2017-10-12T15:16:08.779Z,1.90
2017-10-12T15:18:36.235Z,1.97
2017-10-12T15:21:03.671Z,2.17
2017-10-12T15:23:31.262Z,2.00
2017-10-12T15:25:58.786Z,2.20
2017-10-12T15:28:26.232Z,1.80
2017-10-12T15:30:54.447Z,1.70
2017-10-12T15:33:21.887Z,1.70
2017-10-12T15:35:49.514Z,2.00
2017-10-12T15:38:17.723Z,1.60
2017-10-12T15:40:45.180Z,1.60
2017-10-12T15:43:12.614Z,1.53
2017-10-12T15:45:40.054Z,2.17
2017-10-12T15:48:08.258Z,2.30
2017-10-12T15:50:35.699Z,2.20
2017-10-12T15:53:03.145Z,2.87
2017-10-12T15:55:31.358Z,2.00
2017-10-12T15:57:58.808Z,2.33
2017-10-12T16:00:26.263Z,2.40
2017-10-12T16:02:53.703Z,2.20
2017-10-12T16:05:21.152Z,2.00
2017-10-12T16:07:49.563Z,2.00
2017-10-12T16:10:17.006Z,1.90
2017-10-12T16:12:44.567Z,2.30
2017-10-12T16:15:12.843Z,1.90
2017-10-12T16:17:40.293Z,2.50
2017-10-12T16:20:07.968Z,2.97
2017-10-12T16:25:02.857Z,2.33
2017-10-12T16:27:30.310Z,2.87
2017-10-12T16:29:57.747Z,2.73
2017-10-12T16:32:25.960Z,2.73
2017-10-12T16:34:53.394Z,2.93
2017-10-12T16:37:20.842Z,2.80
2017-10-12T16:39:49.047Z,3.23
2017-10-12T16:42:16.498Z,2.60
2017-10-12T16:44:43.960Z,2.77
2017-10-12T16:47:11.421Z,3.13
2017-10-12T16:49:38.850Z,3.33
2017-10-12T16:52:06.290Z,2.90
2017-10-12T16:54:34.506Z,4.10
2017-10-12T16:57:01.955Z,3.97
2017-10-12T16:59:29.401Z,3.57
2017-10-12T17:01:56.843Z,3.67
2017-10-12T17:04:24.306Z,5.40
2017-10-12T17:06:51.747Z,5.37
2017-10-12T17:09:19.949Z,5.13
2017-10-12T17:11:47.404Z,4.77
2017-10-12T17:14:14.867Z,5.60
2017-10-12T17:16:42.288Z,5.10
2017-10-12T17:19:10.504Z,5.47
2017-10-12T17:21:37.960Z,4.90
2017-10-12T17:24:05.419Z,5.20
2017-10-12T17:26:32.859Z,5.43
2017-10-12T17:29:00.299Z,5.70
2017-10-12T17:31:27.764Z,6.83
2017-10-12T17:33:55.195Z,6.27
2017-10-12T17:36:23.582Z,9.10
2017-10-12T17:38:51.881Z,6.30
2017-10-12T17:41:19.335Z,4.93
2017-10-12T17:43:46.781Z,4.70
2017-10-12T17:46:14.248Z,4.97
2017-10-12T17:48:41.701Z,4.70
2017-10-12T17:51:09.126Z,4.83
2017-10-12T17:53:37.347Z,4.00
2017-10-12T17:56:04.796Z,4.33
2017-10-12T17:58:32.280Z,4.43
2017-10-12T18:00:59.722Z,5.20
2017-10-12T18:03:27.185Z,4.47
2017-10-12T18:05:54.635Z,4.67
2017-10-12T18:08:22.083Z,5.10
2017-10-12T18:10:49.527Z,4.60
2017-10-12T18:13:16.980Z,3.70
2017-10-12T18:15:44.415Z,3.33
2017-10-12T18:18:11.890Z,3.97
2017-10-12T18:20:39.339Z,3.60
2017-10-12T18:23:06.806Z,4.60
2017-10-12T18:25:34.253Z,4.33
2017-10-12T18:28:01.691Z,3.23
2017-10-12T18:30:30.432Z,4.33
2017-10-12T18:32:57.888Z,3.23
2017-10-12T18:35:25.322Z,3.07
2017-10-12T18:37:52.774Z,2.70
2017-10-12T18:40:20.229Z,3.33
2017-10-12T18:42:47.668Z,3.13
2017-10-12T18:45:15.110Z,3.50
2017-10-12T18:47:43.321Z,3.10
2017-10-12T18:50:10.772Z,2.83
2017-10-12T18:52:38.215Z,2.70
2017-10-12T18:55:05.661Z,2.23
2017-10-12T18:57:33.143Z,2.50
2017-10-12T19:00:01.312Z,3.13
2017-10-12T19:02:28.751Z,3.10
2017-10-12T19:04:56.224Z,3.40
2017-10-12T19:07:23.663Z,3.50
2017-10-12T19:09:51.120Z,3.23
2017-10-12T19:12:18.562Z,3.33
2017-10-12T19:14:46.780Z,3.90
2017-10-12T19:17:14.223Z,2.70
2017-10-12T19:19:41.677Z,2.47
2017-10-12T19:22:09.110Z,2.63
2017-10-12T19:24:36.627Z,2.80
2017-10-12T19:27:04.075Z,3.07
2017-10-12T19:29:31.518Z,2.60
2017-10-12T19:31:59.736Z,2.70
2017-10-12T19:34:27.951Z,2.93
2017-10-12T19:36:55.411Z,3.03
2017-10-12T19:39:22.846Z,2.80
2017-10-12T19:41:50.285Z,3.20
2017-10-12T19:44:18.506Z,2.80
2017-10-12T19:46:46.035Z,2.83
2017-10-12T19:49:13.467Z,2.80
2017-10-12T19:51:41.680Z,2.90
2017-10-12T19:54:09.137Z,2.60
2017-10-12T19:56:37.036Z,2.70
2017-10-12T19:59:05.311Z,2.90
2017-10-12T20:01:33.567Z,2.83
2017-10-12T20:04:01.780Z,2.97
2017-10-12T20:06:29.228Z,3.33
2017-10-12T20:08:56.675Z,3.60
2017-10-12T20:11:24.161Z,3.10
2017-10-12T20:16:21.230Z,3.60
2017-10-12T20:18:48.836Z,3.50
2017-10-12T20:21:17.112Z,3.50
2017-10-12T20:23:44.561Z,3.27
2017-10-12T20:26:12.007Z,3.00
2017-10-12T20:28:39.464Z,3.07
2017-10-12T20:31:07.017Z,2.47
2017-10-12T20:33:34.799Z,3.23
2017-10-12T20:36:02.977Z,3.10
2017-10-12T20:38:31.061Z,3.77
2017-10-12T20:40:58.506Z,3.93
2017-10-12T20:43:26.335Z,3.60
2017-10-12T20:45:53.856Z,3.50
2017-10-12T20:48:22.114Z,2.97
2017-10-12T20:50:49.583Z,3.30
2017-10-12T20:53:17.036Z,3.20
2017-10-12T20:55:44.479Z,3.50
2017-10-12T20:58:11.931Z,3.53
2017-10-12T21:00:39.383Z,4.53
2017-10-12T21:03:06.827Z,3.67
2017-10-12T21:08:01.732Z,3.50
2017-10-12T21:10:29.186Z,4.10
2017-10-12T21:12:56.643Z,3.80
2017-10-12T21:15:24.083Z,3.57
2017-10-12T21:17:51.531Z,4.27
2017-10-12T21:20:19.752Z,3.20
2017-10-12T21:22:47.199Z,3.93
2017-10-12T21:25:14.639Z,4.13
2017-10-12T21:27:42.095Z,3.30
2017-10-12T21:30:09.539Z,3.70
2017-10-12T21:32:36.978Z,3.90
2017-10-12T21:35:06.175Z,4.43
2017-10-12T21:37:34.379Z,3.63
2017-10-12T21:40:01.877Z,4.33
2017-10-12T21:42:29.328Z,4.20
2017-10-12T21:44:56.767Z,3.93
2017-10-12T21:47:24.216Z,3.50
2017-10-12T21:49:51.660Z,2.63
2017-10-12T21:52:19.102Z,2.93
2017-10-12T21:54:46.548Z,3.23
2017-10-12T21:57:13.987Z,3.00
2017-10-12T21:59:42.199Z,2.90
2017-10-12T22:02:09.643Z,2.60
2017-10-12T22:04:37.091Z,2.90
2017-10-12T22:07:04.523Z,2.90
2017-10-12T22:09:31.971Z,3.23
2017-10-12T22:11:59.415Z,3.47
2017-10-12T22:14:26.864Z,3.90
2017-10-12T22:16:55.075Z,3.30
2017-10-12T22:19:23.283Z,3.57
2017-10-12T22:21:50.726Z,4.03
2017-10-12T22:24:18.182Z,3.70
2017-10-12T22:26:45.611Z,3.67
2017-10-12T22:29:13.823Z,3.67
2017-10-12T22:31:41.263Z,3.17
2017-10-12T22:34:08.711Z,2.80
2017-10-12T22:36:36.918Z,2.67
2017-10-12T22:39:04.366Z,2.80
2017-10-12T22:41:31.823Z,2.90
2017-10-12T22:43:59.262Z,2.83
2017-10-12T22:46:26.712Z,3.33
2017-10-12T22:48:54.918Z,2.30
2017-10-12T22:51:22.363Z,2.97
2017-10-12T22:53:49.817Z,2.60
2017-10-12T22:56:17.262Z,3.17
2017-10-12T22:58:44.705Z,2.70
2017-10-12T23:01:12.919Z,2.97
2017-10-12T23:03:40.358Z,3.13
2017-10-12T23:06:07.810Z,2.80
2017-10-12T23:08:35.243Z,2.60
2017-10-12T23:11:04.111Z,3.00
2017-10-12T23:13:31.556Z,2.80
2017-10-12T23:15:58.996Z,2.90
2017-10-12T23:18:26.443Z,2.67
2017-10-12T23:20:53.886Z,3.00
2017-10-12T23:23:21.338Z,2.53
2017-10-12T23:25:48.771Z,2.70
2017-10-12T23:28:16.974Z,2.67
2017-10-12T23:30:44.427Z,2.43
2017-10-12T23:33:11.858Z,2.10
2017-10-12T23:35:39.307Z,2.53
2017-10-12T23:38:07.511Z,2.40
2017-10-12T23:40:34.967Z,2.70
2017-10-12T23:43:02.418Z,2.23
2017-10-12T23:45:29.858Z,2.17
2017-10-12T23:47:57.297Z,2.83
2017-10-12T23:50:25.521Z,2.33
2017-10-12T23:52:52.963Z,2.20
2017-10-12T23:55:20.403Z,2.23
2017-10-12T23:57:47.851Z,2.80
